sensor_id;sensor_type;location;lat;lon;timestamp;pressure;altitude;pressure_sealevel;temperature;humidity
52249;BME280;38541;48.130;8.378;2023-02-17T00:02:13;93631.56;;;7.21;58.44
52249;BME280;38541;48.130;8.378;2023-02-17T00:04:41;93639.59;;;7.20;58.34
52249;BME280;38541;48.130;8.378;2023-02-17T00:07:07;93636.78;;;7.21;58.45
52249;BME280;38541;48.130;8.378;2023-02-17T00:09:35;93633.56;;;7.19;58.05
52249;BME280;38541;48.130;8.378;2023-02-17T00:12:02;93634.97;;;7.22;57.99
52249;BME280;38541;48.130;8.378;2023-02-17T00:14:28;93635.09;;;7.27;57.84
52249;BME280;38541;48.130;8.378;2023-02-17T00:16:55;93635.66;;;7.29;57.28
52249;BME280;38541;48.130;8.378;2023-02-17T00:19:21;93653.06;;;7.23;57.50
52249;BME280;38541;48.130;8.378;2023-02-17T00:21:54;93656.00;;;7.27;57.66
52249;BME280;38541;48.130;8.378;2023-02-17T00:24:22;93658.03;;;7.25;58.10
52249;BME280;38541;48.130;8.378;2023-02-17T00:26:49;93658.47;;;7.22;58.32
52249;BME280;38541;48.130;8.378;2023-02-17T00:29:16;93657.25;;;7.24;58.18
52249;BME280;38541;48.130;8.378;2023-02-17T00:31:43;93645.56;;;7.27;58.36
52249;BME280;38541;48.130;8.378;2023-02-17T00:34:11;93643.94;;;7.26;58.37
52249;BME280;38541;48.130;8.378;2023-02-17T00:36:38;93648.75;;;7.29;58.75
52249;BME280;38541;48.130;8.378;2023-02-17T00:39:05;93644.69;;;7.33;58.72
52249;BME280;38541;48.130;8.378;2023-02-17T00:41:32;93643.09;;;7.32;59.08
52249;BME280;38541;48.130;8.378;2023-02-17T00:43:59;93649.56;;;7.30;59.46
52249;BME280;38541;48.130;8.378;2023-02-17T00:46:25;93650.56;;;7.28;60.05
52249;BME280;38541;48.130;8.378;2023-02-17T00:48:52;93647.75;;;7.30;59.79
52249;BME280;38541;48.130;8.378;2023-02-17T00:51:20;93666.47;;;7.27;60.15
52249;BME280;38541;48.130;8.378;2023-02-17T00:53:46;93650.38;;;7.30;60.49
52249;BME280;38541;48.130;8.378;2023-02-17T00:56:13;93660.22;;;7.28;60.51
52249;BME280;38541;48.130;8.378;2023-02-17T00:58:40;93661.22;;;7.27;61.38
52249;BME280;38541;48.130;8.378;2023-02-17T01:01:08;93667.47;;;7.26;61.80
52249;BME280;38541;48.130;8.378;2023-02-17T01:03:38;93653.97;;;7.29;62.33
52249;BME280;38541;48.130;8.378;2023-02-17T01:06:08;93656.75;;;7.34;62.24
52249;BME280;38541;48.130;8.378;2023-02-17T01:08:35;93652.03;;;7.24;62.40
52249;BME280;38541;48.130;8.378;2023-02-17T01:11:03;93660.22;;;7.28;62.72
52249;BME280;38541;48.130;8.378;2023-02-17T01:13:30;93647.31;;;7.33;62.92
52249;BME280;38541;48.130;8.378;2023-02-17T01:15:58;93641.41;;;7.38;62.84
52249;BME280;38541;48.130;8.378;2023-02-17T01:18:25;93642.22;;;7.38;63.08
52249;BME280;38541;48.130;8.378;2023-02-17T01:20:52;93625.38;;;7.34;63.67
52249;BME280;38541;48.130;8.378;2023-02-17T01:23:18;93633.34;;;7.39;63.46
52249;BME280;38541;48.130;8.378;2023-02-17T01:25:46;93626.22;;;7.47;64.09
52249;BME280;38541;48.130;8.378;2023-02-17T01:28:18;93625.44;;;7.46;64.03
52249;BME280;38541;48.130;8.378;2023-02-17T01:30:46;93627.69;;;7.42;64.41
52249;BME280;38541;48.130;8.378;2023-02-17T01:33:13;93617.00;;;7.44;64.88
52249;BME280;38541;48.130;8.378;2023-02-17T01:35:40;93613.94;;;7.47;64.69
52249;BME280;38541;48.130;8.378;2023-02-17T01:38:06;93616.94;;;7.51;64.87
52249;BME280;38541;48.130;8.378;2023-02-17T01:40:33;93611.13;;;7.49;64.87
52249;BME280;38541;48.130;8.378;2023-02-17T01:42:59;93615.47;;;7.55;64.76
52249;BME280;38541;48.130;8.378;2023-02-17T01:45:31;93613.06;;;7.53;64.81
52249;BME280;38541;48.130;8.378;2023-02-17T01:48:02;93602.06;;;7.63;64.47
52249;BME280;38541;48.130;8.378;2023-02-17T01:50:45;93606.59;;;7.56;64.65
52249;BME280;38541;48.130;8.378;2023-02-17T01:53:19;93608.19;;;7.57;64.81
52249;BME280;38541;48.130;8.378;2023-02-17T01:55:47;93593.66;;;7.61;64.63
52249;BME280;38541;48.130;8.378;2023-02-17T01:58:16;93596.84;;;7.63;64.98
52249;BME280;38541;48.130;8.378;2023-02-17T02:00:46;93588.34;;;7.68;64.86
52249;BME280;38541;48.130;8.378;2023-02-17T02:03:14;93591.41;;;7.65;64.64
52249;BME280;38541;48.130;8.378;2023-02-17T02:05:41;93589.16;;;7.68;64.72
52249;BME280;38541;48.130;8.378;2023-02-17T02:08:09;93579.84;;;7.73;64.79
52249;BME280;38541;48.130;8.378;2023-02-17T02:10:37;93582.22;;;7.74;64.90
52249;BME280;38541;48.130;8.378;2023-02-17T02:13:04;93575.16;;;7.75;64.86
52249;BME280;38541;48.130;8.378;2023-02-17T02:19:03;93578.56;;;7.75;64.69
52249;BME280;38541;48.130;8.378;2023-02-17T02:24:52;93575.75;;;7.77;64.16
52249;BME280;38541;48.130;8.378;2023-02-17T02:30:20;93570.06;;;7.80;64.42
52249;BME280;38541;48.130;8.378;2023-02-17T02:32:58;93566.41;;;7.81;64.42
52249;BME280;38541;48.130;8.378;2023-02-17T02:35:51;93558.38;;;7.82;64.00
52249;BME280;38541;48.130;8.378;2023-02-17T02:38:33;93561.44;;;7.91;63.68
52249;BME280;38541;48.130;8.378;2023-02-17T02:41:08;93552.09;;;7.83;63.58
52249;BME280;38541;48.130;8.378;2023-02-17T02:43:37;93552.78;;;7.79;63.86
52249;BME280;38541;48.130;8.378;2023-02-17T02:46:04;93557.56;;;7.82;64.13
52249;BME280;38541;48.130;8.378;2023-02-17T02:48:31;93560.63;;;7.79;64.14
52249;BME280;38541;48.130;8.378;2023-02-17T02:54:21;93559.16;;;7.83;64.43
52249;BME280;38541;48.130;8.378;2023-02-17T02:57:11;93555.75;;;7.82;64.62
52249;BME280;38541;48.130;8.378;2023-02-17T03:02:33;93557.56;;;7.82;64.80
52249;BME280;38541;48.130;8.378;2023-02-17T03:08:12;93544.63;;;7.87;64.71
52249;BME280;38541;48.130;8.378;2023-02-17T03:10:59;93542.56;;;7.89;65.07
52249;BME280;38541;48.130;8.378;2023-02-17T03:13:32;93533.25;;;7.93;65.03
52249;BME280;38541;48.130;8.378;2023-02-17T03:15:59;93538.84;;;7.97;64.58
52249;BME280;38541;48.130;8.378;2023-02-17T03:18:25;93539.25;;;7.94;65.26
52249;BME280;38541;48.130;8.378;2023-02-17T03:20:56;93538.56;;;7.87;65.29
52249;BME280;38541;48.130;8.378;2023-02-17T03:23:25;93539.13;;;7.89;65.43
52249;BME280;38541;48.130;8.378;2023-02-17T03:25:52;93530.06;;;7.91;65.53
52249;BME280;38541;48.130;8.378;2023-02-17T03:28:18;93535.75;;;7.88;65.79
52249;BME280;38541;48.130;8.378;2023-02-17T03:30:46;93542.91;;;7.93;65.47
52249;BME280;38541;48.130;8.378;2023-02-17T03:33:12;93540.63;;;7.84;65.71
52249;BME280;38541;48.130;8.378;2023-02-17T03:35:38;93545.75;;;7.91;65.57
52249;BME280;38541;48.130;8.378;2023-02-17T03:38:05;93540.53;;;7.91;65.91
52249;BME280;38541;48.130;8.378;2023-02-17T03:40:31;93536.63;;;7.82;66.40
52249;BME280;38541;48.130;8.378;2023-02-17T03:42:58;93535.47;;;7.78;66.96
52249;BME280;38541;48.130;8.378;2023-02-17T03:45:24;93540.25;;;7.81;66.73
52249;BME280;38541;48.130;8.378;2023-02-17T03:47:51;93540.84;;;7.83;66.87
52249;BME280;38541;48.130;8.378;2023-02-17T03:50:17;93539.69;;;7.79;66.90
52249;BME280;38541;48.130;8.378;2023-02-17T03:52:44;93540.03;;;7.70;66.64
52249;BME280;38541;48.130;8.378;2023-02-17T03:55:11;93541.47;;;7.66;66.48
52249;BME280;38541;48.130;8.378;2023-02-17T03:57:37;93548.53;;;7.66;66.59
52249;BME280;38541;48.130;8.378;2023-02-17T04:00:05;93545.69;;;7.67;66.19
52249;BME280;38541;48.130;8.378;2023-02-17T04:02:38;93537.97;;;7.73;65.98
52249;BME280;38541;48.130;8.378;2023-02-17T04:05:07;93542.41;;;7.72;65.95
52249;BME280;38541;48.130;8.378;2023-02-17T04:07:33;93555.19;;;7.80;65.06
52249;BME280;38541;48.130;8.378;2023-02-17T04:10:00;93539.78;;;7.72;64.55
52249;BME280;38541;48.130;8.378;2023-02-17T04:12:29;93546.94;;;7.65;63.36
52249;BME280;38541;48.130;8.378;2023-02-17T04:14:56;93543.75;;;7.63;63.61
52249;BME280;38541;48.130;8.378;2023-02-17T04:17:22;93546.03;;;7.71;63.08
52249;BME280;38541;48.130;8.378;2023-02-17T04:19:49;93543.22;;;7.73;62.75
52249;BME280;38541;48.130;8.378;2023-02-17T04:22:15;93551.63;;;7.75;61.71
52249;BME280;38541;48.130;8.378;2023-02-17T04:24:42;93551.94;;;7.66;60.94
52249;BME280;38541;48.130;8.378;2023-02-17T04:27:08;93532.94;;;7.59;60.73
52249;BME280;38541;48.130;8.378;2023-02-17T04:29:34;93537.97;;;7.61;60.79
52249;BME280;38541;48.130;8.378;2023-02-17T04:32:01;93526.69;;;7.60;60.55
52249;BME280;38541;48.130;8.378;2023-02-17T04:34:27;93525.31;;;7.57;60.54
52249;BME280;38541;48.130;8.378;2023-02-17T04:36:54;93526.69;;;7.60;60.34
52249;BME280;38541;48.130;8.378;2023-02-17T04:39:20;93541.34;;;7.61;60.48
52249;BME280;38541;48.130;8.378;2023-02-17T04:41:47;93540.19;;;7.45;60.17
52249;BME280;38541;48.130;8.378;2023-02-17T04:44:13;93537.31;;;7.47;60.02
52249;BME280;38541;48.130;8.378;2023-02-17T04:46:40;93546.75;;;7.48;59.88
52249;BME280;38541;48.130;8.378;2023-02-17T04:49:06;93544.97;;;7.48;59.45
52249;BME280;38541;48.130;8.378;2023-02-17T04:51:33;93553.38;;;7.50;59.78
52249;BME280;38541;48.130;8.378;2023-02-17T04:53:59;93559.09;;;7.59;59.45
52249;BME280;38541;48.130;8.378;2023-02-17T04:56:26;93544.53;;;7.63;59.39
52249;BME280;38541;48.130;8.378;2023-02-17T04:58:52;93552.19;;;7.65;58.58
52249;BME280;38541;48.130;8.378;2023-02-17T05:01:19;93555.00;;;7.63;58.70
52249;BME280;38541;48.130;8.378;2023-02-17T05:03:45;93563.53;;;7.59;58.81
52249;BME280;38541;48.130;8.378;2023-02-17T05:06:12;93548.63;;;7.59;58.75
52249;BME280;38541;48.130;8.378;2023-02-17T05:08:38;93544.91;;;7.67;59.09
52249;BME280;38541;48.130;8.378;2023-02-17T05:11:04;93543.22;;;7.73;59.07
52249;BME280;38541;48.130;8.378;2023-02-17T05:13:31;93550.25;;;7.72;58.81
52249;BME280;38541;48.130;8.378;2023-02-17T05:15:58;93541.25;;;7.68;59.05
52249;BME280;38541;48.130;8.378;2023-02-17T05:18:24;93545.59;;;7.74;59.41
52249;BME280;38541;48.130;8.378;2023-02-17T05:20:51;93544.34;;;7.77;58.91
52249;BME280;38541;48.130;8.378;2023-02-17T05:23:17;93540.81;;;7.71;59.00
52249;BME280;38541;48.130;8.378;2023-02-17T05:25:44;93537.97;;;7.73;59.58
52249;BME280;38541;48.130;8.378;2023-02-17T05:28:10;93540.03;;;7.70;59.48
52249;BME280;38541;48.130;8.378;2023-02-17T05:30:37;93537.25;;;7.65;60.09
52249;BME280;38541;48.130;8.378;2023-02-17T05:33:03;93545.44;;;7.57;60.95
52249;BME280;38541;48.130;8.378;2023-02-17T05:35:29;93536.53;;;7.46;61.41
52249;BME280;38541;48.130;8.378;2023-02-17T05:37:56;93522.25;;;7.49;61.77
52249;BME280;38541;48.130;8.378;2023-02-17T05:40:22;93524.88;;;7.61;61.69
52249;BME280;38541;48.130;8.378;2023-02-17T05:42:49;93526.69;;;7.60;61.60
52249;BME280;38541;48.130;8.378;2023-02-17T05:45:15;93525.44;;;7.51;62.49
52249;BME280;38541;48.130;8.378;2023-02-17T05:47:42;93541.00;;;7.57;62.20
52249;BME280;38541;48.130;8.378;2023-02-17T05:50:08;93542.22;;;7.43;62.45
52249;BME280;38541;48.130;8.378;2023-02-17T05:52:35;93543.72;;;7.51;62.35
52249;BME280;38541;48.130;8.378;2023-02-17T05:55:01;93533.47;;;7.49;62.42
52249;BME280;38541;48.130;8.378;2023-02-17T05:57:30;93537.13;;;7.48;62.04
52249;BME280;38541;48.130;8.378;2023-02-17T05:59:56;93530.94;;;7.42;62.39
52249;BME280;38541;48.130;8.378;2023-02-17T06:02:23;93543.25;;;7.42;62.94
52249;BME280;38541;48.130;8.378;2023-02-17T06:04:49;93546.19;;;7.46;62.87
52249;BME280;38541;48.130;8.378;2023-02-17T06:07:16;93543.50;;;7.52;62.58
52249;BME280;38541;48.130;8.378;2023-02-17T06:09:42;93547.56;;;7.48;62.82
52249;BME280;38541;48.130;8.378;2023-02-17T06:12:12;93549.53;;;7.53;63.21
52249;BME280;38541;48.130;8.378;2023-02-17T06:14:38;93557.66;;;7.45;63.36
52249;BME280;38541;48.130;8.378;2023-02-17T06:17:05;93550.41;;;7.47;63.92
52249;BME280;38541;48.130;8.378;2023-02-17T06:19:31;93553.34;;;7.38;64.45
52249;BME280;38541;48.130;8.378;2023-02-17T06:21:57;93558.78;;;7.37;64.39
52249;BME280;38541;48.130;8.378;2023-02-17T06:24:24;93566.97;;;7.40;64.44
52249;BME280;38541;48.130;8.378;2023-02-17T06:26:50;93562.56;;;7.41;64.70
52249;BME280;38541;48.130;8.378;2023-02-17T06:29:17;93564.94;;;7.42;64.99
52249;BME280;38541;48.130;8.378;2023-02-17T06:31:43;93568.66;;;7.35;66.22
52249;BME280;38541;48.130;8.378;2023-02-17T06:34:10;93564.56;;;7.39;66.11
52249;BME280;38541;48.130;8.378;2023-02-17T06:36:37;93567.44;;;7.37;66.63
52249;BME280;38541;48.130;8.378;2023-02-17T06:39:03;93584.13;;;7.36;67.19
52249;BME280;38541;48.130;8.378;2023-02-17T06:41:29;93573.09;;;7.34;67.38
52249;BME280;38541;48.130;8.378;2023-02-17T06:43:56;93578.66;;;7.38;67.23
52249;BME280;38541;48.130;8.378;2023-02-17T06:46:22;93572.78;;;7.42;67.11
52249;BME280;38541;48.130;8.378;2023-02-17T06:48:49;93582.00;;;7.45;67.14
52249;BME280;38541;48.130;8.378;2023-02-17T06:51:15;93594.00;;;7.34;67.95
52249;BME280;38541;48.130;8.378;2023-02-17T06:53:41;93579.25;;;7.40;68.09
52249;BME280;38541;48.130;8.378;2023-02-17T06:56:08;93591.56;;;7.51;67.80
52249;BME280;38541;48.130;8.378;2023-02-17T06:58:35;93588.19;;;7.51;67.98
52249;BME280;38541;48.130;8.378;2023-02-17T07:01:02;93595.88;;;7.46;68.68
52249;BME280;38541;48.130;8.378;2023-02-17T07:03:30;93595.03;;;7.33;69.57
52249;BME280;38541;48.130;8.378;2023-02-17T07:05:58;93596.31;;;7.42;69.40
52249;BME280;38541;48.130;8.378;2023-02-17T07:08:25;93603.78;;;7.39;69.74
52249;BME280;38541;48.130;8.378;2023-02-17T07:10:51;93605.69;;;7.32;70.33
52249;BME280;38541;48.130;8.378;2023-02-17T07:13:17;93606.91;;;7.29;70.61
52249;BME280;38541;48.130;8.378;2023-02-17T07:15:44;93605.63;;;7.38;70.67
52249;BME280;38541;48.130;8.378;2023-02-17T07:18:10;93610.84;;;7.38;71.01
52249;BME280;38541;48.130;8.378;2023-02-17T07:20:37;93605.31;;;7.28;72.11
52249;BME280;38541;48.130;8.378;2023-02-17T07:23:04;93603.31;;;7.30;72.20
52249;BME280;38541;48.130;8.378;2023-02-17T07:25:31;93609.00;;;7.39;72.07
52249;BME280;38541;48.130;8.378;2023-02-17T07:27:58;93612.00;;;7.42;72.16
52249;BME280;38541;48.130;8.378;2023-02-17T07:30:25;93613.31;;;7.33;73.17
52249;BME280;38541;48.130;8.378;2023-02-17T07:32:51;93622.91;;;7.39;72.85
52249;BME280;38541;48.130;8.378;2023-02-17T07:35:17;93610.53;;;7.47;73.29
52249;BME280;38541;48.130;8.378;2023-02-17T07:37:44;93618.03;;;7.43;73.54
52249;BME280;38541;48.130;8.378;2023-02-17T07:40:11;93619.34;;;7.34;74.32
52249;BME280;38541;48.130;8.378;2023-02-17T07:42:37;93631.06;;;7.31;74.82
52249;BME280;38541;48.130;8.378;2023-02-17T07:45:04;93627.41;;;7.32;75.17
52249;BME280;38541;48.130;8.378;2023-02-17T07:47:31;93624.22;;;7.30;75.35
52249;BME280;38541;48.130;8.378;2023-02-17T07:49:58;93621.75;;;7.35;75.28
52249;BME280;38541;48.130;8.378;2023-02-17T07:52:24;93630.59;;;7.34;75.74
52249;BME280;38541;48.130;8.378;2023-02-17T07:54:51;93633.94;;;7.41;75.71
52249;BME280;38541;48.130;8.378;2023-02-17T07:57:17;93633.22;;;7.34;76.22
52249;BME280;38541;48.130;8.378;2023-02-17T07:59:45;93633.34;;;7.39;76.40
52249;BME280;38541;48.130;8.378;2023-02-17T08:02:12;93639.22;;;7.53;75.82
52249;BME280;38541;48.130;8.378;2023-02-17T08:04:39;93636.09;;;7.45;75.94
52249;BME280;38541;48.130;8.378;2023-02-17T08:07:05;93630.72;;;7.58;75.86
52249;BME280;38541;48.130;8.378;2023-02-17T08:09:32;93634.88;;;7.47;76.29
52249;BME280;38541;48.130;8.378;2023-02-17T08:12:18;93626.72;;;7.55;76.15
52249;BME280;38541;48.130;8.378;2023-02-17T08:15:05;93632.19;;;7.54;75.70
52249;BME280;38541;48.130;8.378;2023-02-17T08:17:32;93629.78;;;7.52;75.55
52249;BME280;38541;48.130;8.378;2023-02-17T08:19:59;93629.47;;;7.61;75.88
52249;BME280;38541;48.130;8.378;2023-02-17T08:22:33;93649.56;;;7.79;74.72
52249;BME280;38541;48.130;8.378;2023-02-17T08:25:00;93640.00;;;7.73;75.09
52249;BME280;38541;48.130;8.378;2023-02-17T08:27:26;93636.59;;;7.84;74.67
52249;BME280;38541;48.130;8.378;2023-02-17T08:29:53;93648.25;;;7.88;74.09
52249;BME280;38541;48.130;8.378;2023-02-17T08:32:21;93639.38;;;7.89;74.43
52249;BME280;38541;48.130;8.378;2023-02-17T08:34:47;93653.31;;;7.83;74.96
52249;BME280;38541;48.130;8.378;2023-02-17T08:37:14;93645.19;;;7.91;74.86
52249;BME280;38541;48.130;8.378;2023-02-17T08:39:40;93646.16;;;8.09;74.06
52249;BME280;38541;48.130;8.378;2023-02-17T08:42:07;93651.91;;;7.99;74.51
52249;BME280;38541;48.130;8.378;2023-02-17T08:44:34;93655.03;;;8.08;73.79
52249;BME280;38541;48.130;8.378;2023-02-17T08:47:03;93648.34;;;8.24;73.48
52249;BME280;38541;48.130;8.378;2023-02-17T08:49:30;93655.75;;;8.39;73.09
52249;BME280;38541;48.130;8.378;2023-02-17T08:51:58;93652.66;;;8.30;73.24
52249;BME280;38541;48.130;8.378;2023-02-17T08:54:25;93652.25;;;8.45;73.17
52249;BME280;38541;48.130;8.378;2023-02-17T08:56:52;93648.75;;;8.51;71.95
52249;BME280;38541;48.130;8.378;2023-02-17T08:59:19;93657.63;;;8.50;72.59
52249;BME280;38541;48.130;8.378;2023-02-17T09:01:45;93659.94;;;8.28;72.74
52249;BME280;38541;48.130;8.378;2023-02-17T09:04:13;93660.50;;;8.18;73.11
52249;BME280;38541;48.130;8.378;2023-02-17T09:06:44;93669.50;;;8.22;73.37
52249;BME280;38541;48.130;8.378;2023-02-17T09:09:12;93674.16;;;8.20;73.65
52249;BME280;38541;48.130;8.378;2023-02-17T09:11:39;93677.47;;;8.16;73.53
52249;BME280;38541;48.130;8.378;2023-02-17T09:14:06;93681.53;;;8.11;74.16
52249;BME280;38541;48.130;8.378;2023-02-17T09:16:33;93691.81;;;8.25;73.94
52249;BME280;38541;48.130;8.378;2023-02-17T09:19:00;93685.66;;;8.19;73.72
52249;BME280;38541;48.130;8.378;2023-02-17T09:21:26;93688.25;;;8.19;74.08
52249;BME280;38541;48.130;8.378;2023-02-17T09:23:53;93688.31;;;8.43;73.25
52249;BME280;38541;48.130;8.378;2023-02-17T09:26:20;93683.22;;;8.48;72.96
52249;BME280;38541;48.130;8.378;2023-02-17T09:28:47;93683.63;;;8.64;72.68
52249;BME280;38541;48.130;8.378;2023-02-17T09:31:19;93689.53;;;8.71;72.29
52249;BME280;38541;48.130;8.378;2023-02-17T09:33:47;93688.41;;;8.67;72.26
52249;BME280;38541;48.130;8.378;2023-02-17T09:36:16;93688.63;;;8.65;72.73
52249;BME280;38541;48.130;8.378;2023-02-17T09:38:43;93690.88;;;8.62;72.62
52249;BME280;38541;48.130;8.378;2023-02-17T09:41:26;93706.22;;;8.46;73.16
52249;BME280;38541;48.130;8.378;2023-02-17T09:43:53;93689.25;;;8.49;73.42
52249;BME280;38541;48.130;8.378;2023-02-17T09:46:29;93694.81;;;8.40;74.31
52249;BME280;38541;48.130;8.378;2023-02-17T09:49:06;93697.59;;;8.57;74.10
52249;BME280;38541;48.130;8.378;2023-02-17T09:51:37;93702.44;;;8.42;74.41
52249;BME280;38541;48.130;8.378;2023-02-17T09:54:17;93700.97;;;8.46;73.99
52249;BME280;38541;48.130;8.378;2023-02-17T09:56:47;93697.34;;;8.47;74.13
52249;BME280;38541;48.130;8.378;2023-02-17T09:59:35;93697.03;;;8.55;74.05
52249;BME280;38541;48.130;8.378;2023-02-17T10:02:08;93697.34;;;8.47;74.52
52249;BME280;38541;48.130;8.378;2023-02-17T10:04:41;93688.97;;;8.69;73.93
52249;BME280;38541;48.130;8.378;2023-02-17T10:07:17;93688.06;;;8.87;73.66
52249;BME280;38541;48.130;8.378;2023-02-17T10:09:49;93677.91;;;9.14;72.63
52249;BME280;38541;48.130;8.378;2023-02-17T10:12:23;93681.09;;;9.17;72.29
52249;BME280;38541;48.130;8.378;2023-02-17T10:14:54;93681.81;;;9.12;72.65
52249;BME280;38541;48.130;8.378;2023-02-17T10:20:12;93685.31;;;9.41;72.41
52249;BME280;38541;48.130;8.378;2023-02-17T10:22:41;93679.34;;;9.46;71.72
52249;BME280;38541;48.130;8.378;2023-02-17T10:25:14;93692.47;;;9.58;71.98
52249;BME280;38541;48.130;8.378;2023-02-17T10:27:46;93685.34;;;9.70;71.05
52249;BME280;38541;48.130;8.378;2023-02-17T10:30:48;93679.75;;;9.79;71.56
52249;BME280;38541;48.130;8.378;2023-02-17T10:33:30;93695.13;;;10.16;71.65
52249;BME280;38541;48.130;8.378;2023-02-17T10:36:09;93709.94;;;10.22;69.53
52249;BME280;38541;48.130;8.378;2023-02-17T10:39:12;93704.88;;;10.04;70.87
52249;BME280;38541;48.130;8.378;2023-02-17T10:41:41;93696.72;;;9.88;70.61
52249;BME280;38541;48.130;8.378;2023-02-17T10:44:16;93698.56;;;9.88;70.70
52249;BME280;38541;48.130;8.378;2023-02-17T10:46:45;93709.91;;;9.93;70.43
52249;BME280;38541;48.130;8.378;2023-02-17T10:49:38;93725.28;;;9.73;71.01
52249;BME280;38541;48.130;8.378;2023-02-17T10:52:13;93711.41;;;9.60;71.48
52249;BME280;38541;48.130;8.378;2023-02-17T10:54:47;93719.28;;;9.48;71.51
52249;BME280;38541;48.130;8.378;2023-02-17T10:57:18;93714.97;;;9.30;72.36
52249;BME280;38541;48.130;8.378;2023-02-17T10:59:46;93716.66;;;9.24;73.08
52249;BME280;38541;48.130;8.378;2023-02-17T11:04:44;93707.31;;;9.17;73.35
52249;BME280;38541;48.130;8.378;2023-02-17T11:07:13;93703.13;;;9.04;73.88
52249;BME280;38541;48.130;8.378;2023-02-17T11:09:46;93719.84;;;9.26;73.65
52249;BME280;38541;48.130;8.378;2023-02-17T11:12:17;93715.31;;;9.22;73.08
52249;BME280;38541;48.130;8.378;2023-02-17T11:14:48;93710.06;;;9.22;73.15
52249;BME280;38541;48.130;8.378;2023-02-17T11:22:30;93709.72;;;9.18;73.33
52249;BME280;38541;48.130;8.378;2023-02-17T11:25:02;93713.72;;;9.21;73.54
52249;BME280;38541;48.130;8.378;2023-02-17T11:27:29;93713.47;;;9.34;72.89
52249;BME280;38541;48.130;8.378;2023-02-17T11:30:07;93716.91;;;9.11;73.34
52249;BME280;38541;48.130;8.378;2023-02-17T11:32:34;93710.19;;;9.15;73.51
52249;BME280;38541;48.130;8.378;2023-02-17T11:35:01;93701.28;;;9.28;73.45
52249;BME280;38541;48.130;8.378;2023-02-17T11:37:31;93698.44;;;9.41;72.87
52249;BME280;38541;48.130;8.378;2023-02-17T11:39:59;93692.16;;;9.42;72.18
52249;BME280;38541;48.130;8.378;2023-02-17T11:42:27;93686.94;;;9.71;71.98
52249;BME280;38541;48.130;8.378;2023-02-17T11:44:56;93692.13;;;9.95;71.02
52249;BME280;38541;48.130;8.378;2023-02-17T11:47:41;93693.56;;;9.74;70.90
52249;BME280;38541;48.130;8.378;2023-02-17T11:55:28;93683.91;;;9.92;70.73
52249;BME280;38541;48.130;8.378;2023-02-17T12:00:44;93686.69;;;9.85;70.75
52249;BME280;38541;48.130;8.378;2023-02-17T12:06:21;93676.09;;;9.80;71.38
52249;BME280;38541;48.130;8.378;2023-02-17T12:11:35;93685.81;;;10.25;69.82
52249;BME280;38541;48.130;8.378;2023-02-17T12:17:20;93693.53;;;10.44;68.65
52249;BME280;38541;48.130;8.378;2023-02-17T12:20:17;93698.13;;;10.37;68.74
52249;BME280;38541;48.130;8.378;2023-02-17T12:23:02;93685.50;;;10.22;69.44
52249;BME280;38541;48.130;8.378;2023-02-17T12:25:39;93683.56;;;10.46;68.86
52249;BME280;38541;48.130;8.378;2023-02-17T12:30:47;93687.19;;;10.74;68.04
52249;BME280;38541;48.130;8.378;2023-02-17T12:33:41;93681.75;;;10.64;68.52
52249;BME280;38541;48.130;8.378;2023-02-17T12:36:04;93680.66;;;10.77;67.98
52249;BME280;38541;48.130;8.378;2023-02-17T12:38:38;93690.53;;;10.87;67.23
52249;BME280;38541;48.130;8.378;2023-02-17T12:41:19;93681.13;;;10.74;67.58
52249;BME280;38541;48.130;8.378;2023-02-17T12:44:00;93685.09;;;10.59;67.93
52249;BME280;38541;48.130;8.378;2023-02-17T12:46:34;93688.09;;;10.34;68.97
52249;BME280;38541;48.130;8.378;2023-02-17T12:49:08;93690.34;;;10.42;69.08
52249;BME280;38541;48.130;8.378;2023-02-17T12:54:25;93683.47;;;10.12;70.03
52249;BME280;38541;48.130;8.378;2023-02-17T12:57:13;93681.44;;;10.43;69.31
52249;BME280;38541;48.130;8.378;2023-02-17T12:59:45;93689.97;;;10.21;69.69
52249;BME280;38541;48.130;8.378;2023-02-17T13:02:15;93693.38;;;9.93;70.81
52249;BME280;38541;48.130;8.378;2023-02-17T13:04:44;93684.06;;;9.85;71.46
52249;BME280;38541;48.130;8.378;2023-02-17T13:12:58;93684.16;;;9.90;71.69
52249;BME280;38541;48.130;8.378;2023-02-17T13:15:34;93674.97;;;10.05;71.09
52249;BME280;38541;48.130;8.378;2023-02-17T13:23:38;93663.69;;;10.84;68.75
52249;BME280;38541;48.130;8.378;2023-02-17T13:26:24;93673.66;;;10.65;68.85
52249;BME280;38541;48.130;8.378;2023-02-17T13:28:53;93667.38;;;10.37;69.54
52249;BME280;38541;48.130;8.378;2023-02-17T13:31:24;93670.47;;;10.34;70.05
52249;BME280;38541;48.130;8.378;2023-02-17T13:33:57;93661.00;;;10.16;70.56
52249;BME280;38541;48.130;8.378;2023-02-17T13:39:27;93656.53;;;10.17;71.10
52249;BME280;38541;48.130;8.378;2023-02-17T13:41:56;93663.16;;;10.19;70.57
52249;BME280;38541;48.130;8.378;2023-02-17T13:44:30;93657.66;;;10.21;70.38
52249;BME280;38541;48.130;8.378;2023-02-17T13:47:00;93667.31;;;10.32;70.19
52249;BME280;38541;48.130;8.378;2023-02-17T13:49:30;93665.44;;;10.33;70.20
52249;BME280;38541;48.130;8.378;2023-02-17T13:52:07;93664.19;;;10.35;70.01
52249;BME280;38541;48.130;8.378;2023-02-17T13:54:34;93663.41;;;10.35;69.53
52249;BME280;38541;48.130;8.378;2023-02-17T13:57:01;93665.59;;;10.09;69.81
52249;BME280;38541;48.130;8.378;2023-02-17T13:59:27;93671.28;;;9.89;71.33
52249;BME280;38541;48.130;8.378;2023-02-17T14:01:54;93665.59;;;10.09;71.27
52249;BME280;38541;48.130;8.378;2023-02-17T14:04:24;93661.16;;;10.26;70.57
52249;BME280;38541;48.130;8.378;2023-02-17T14:06:51;93669.59;;;10.28;70.30
52249;BME280;38541;48.130;8.378;2023-02-17T14:09:32;93672.34;;;10.34;70.08
52249;BME280;38541;48.130;8.378;2023-02-17T14:12:05;93674.44;;;10.20;70.39
52249;BME280;38541;48.130;8.378;2023-02-17T14:14:35;93672.13;;;10.23;70.21
52249;BME280;38541;48.130;8.378;2023-02-17T14:17:05;93673.09;;;10.17;70.06
52249;BME280;38541;48.130;8.378;2023-02-17T14:19:46;93667.03;;;10.17;70.57
52249;BME280;38541;48.130;8.378;2023-02-17T14:22:28;93669.44;;;10.18;70.51
52249;BME280;38541;48.130;8.378;2023-02-17T14:25:06;93664.66;;;10.15;70.33
52249;BME280;38541;48.130;8.378;2023-02-17T14:27:46;93669.25;;;10.08;70.96
52249;BME280;38541;48.130;8.378;2023-02-17T14:30:36;93672.53;;;9.86;70.89